Time;durP1;ratioP1;P1;durP2;ratioP2;P2;SDS_P1;SDS_P2;PMS_P1;PMS_P2;Temp;Humidity;BMP_temperature;BMP_pressure;BME280_temperature;BME280_humidity;BME280_pressure;Samples;Min_cycle;Max_cycle;Signal;HPM_P1;HPM_P2
2021/06/16 00:01:58;;;;;;;3.20;2.33;;;19.10;60.60;;;;;;4996708;28;20034;-68
2021/06/16 00:04:24;;;;;;;2.55;2.30;;;19.00;60.60;;;;;;4995252;28;20041;-69
2021/06/16 00:06:51;;;;;;;3.33;2.40;;;19.00;60.80;;;;;;4999181;28;20046;-68
2021/06/16 00:09:17;;;;;;;4.50;2.60;;;18.90;61.10;;;;;;4996063;28;20112;-69
2021/06/16 00:11:42;;;;;;;2.45;2.28;;;18.90;61.50;;;;;;4994539;28;20164;-69
2021/06/16 00:14:08;;;;;;;2.85;2.53;;;18.90;61.60;;;;;;4997215;28;20125;-68
2021/06/16 00:16:34;;;;;;;2.33;2.22;;;18.80;61.80;;;;;;4996537;28;20045;-68
2021/06/16 00:19:00;;;;;;;3.50;2.50;;;18.80;62.80;;;;;;4996087;28;20030;-69
2021/06/16 00:21:26;;;;;;;3.05;2.80;;;18.70;62.10;;;;;;4996520;28;20044;-69
2021/06/16 00:23:52;;;;;;;3.50;2.65;;;18.70;62.30;;;;;;4997517;28;20034;-68
2021/06/16 00:26:17;;;;;;;5.75;2.50;;;18.70;63.40;;;;;;4996254;28;20037;-68
2021/06/16 00:28:43;;;;;;;3.28;2.97;;;18.70;62.70;;;;;;4994929;28;20161;-69
2021/06/16 00:31:09;;;;;;;3.00;2.70;;;18.60;62.70;;;;;;4996770;28;20567;-69
2021/06/16 00:33:35;;;;;;;2.45;2.25;;;18.60;63.10;;;;;;4996298;28;20041;-69
2021/06/16 00:36:00;;;;;;;3.33;2.47;;;18.60;63.00;;;;;;5000103;28;20045;-68
2021/06/16 00:38:27;;;;;;;2.50;2.13;;;18.60;63.10;;;;;;4996494;28;20026;-69
2021/06/16 00:40:53;;;;;;;2.50;2.25;;;18.60;63.10;;;;;;4996938;28;20040;-68
2021/06/16 00:43:19;;;;;;;4.00;2.95;;;18.60;63.20;;;;;;4994778;28;20035;-68
2021/06/16 00:45:45;;;;;;;2.67;2.42;;;18.60;63.10;;;;;;4997139;28;20042;-68
2021/06/16 00:48:11;;;;;;;4.32;2.97;;;18.50;63.10;;;;;;4996863;28;20049;-69
2021/06/16 00:50:39;;;;;;;3.00;2.78;;;18.50;63.40;;;;;;4995781;28;20409;-69
2021/06/16 00:53:07;;;;;;;4.60;2.80;;;18.40;63.70;;;;;;4994369;28;22069;-68
2021/06/16 00:55:38;;;;;;;3.60;3.13;;;18.40;63.80;;;;;;4997211;28;20061;-68
2021/06/16 00:58:06;;;;;;;3.65;2.72;;;18.30;64.10;;;;;;4997241;28;20036;-68
2021/06/16 01:00:55;;;;;;;4.93;3.38;;;18.30;64.50;;;;;;5001906;28;20064;-68
2021/06/16 01:03:45;;;;;;;3.78;2.80;;;18.30;65.70;;;;;;4995996;28;20022;-69
2021/06/16 01:06:41;;;;;;;4.28;2.80;;;18.30;65.50;;;;;;4996032;28;20247;-69
2021/06/16 01:09:31;;;;;;;2.53;2.20;;;18.20;65.50;;;;;;4995689;28;20164;-69
2021/06/16 01:12:24;;;;;;;2.70;2.47;;;18.20;65.50;;;;;;4994314;28;20760;-68
2021/06/16 01:14:51;;;;;;;2.67;2.47;;;18.20;65.20;;;;;;4996505;28;20037;-68
2021/06/16 01:17:24;;;;;;;4.57;2.65;;;18.20;64.60;;;;;;4999043;28;20156;-68
2021/06/16 01:19:59;;;;;;;3.05;2.70;;;18.20;65.00;;;;;;5001848;28;20042;-68
2021/06/16 01:22:43;;;;;;;3.55;3.15;;;18.20;65.60;;;;;;5001891;28;20125;-68
2021/06/16 01:25:28;;;;;;;5.40;3.17;;;18.10;64.60;;;;;;4999774;28;20577;-68
2021/06/16 01:27:54;;;;;;;4.40;3.17;;;18.10;66.20;;;;;;4999120;28;20418;-68
2021/06/16 01:30:21;;;;;;;3.95;3.35;;;18.10;64.60;;;;;;4999633;28;20038;-68
2021/06/16 01:32:48;;;;;;;5.78;3.42;;;18.10;65.20;;;;;;5004292;28;20049;-69
2021/06/16 01:35:13;;;;;;;6.70;3.30;;;18.00;65.50;;;;;;4999377;28;20053;-68
2021/06/16 01:37:40;;;;;;;3.42;3.15;;;18.00;65.70;;;;;;5000482;28;20395;-68
2021/06/16 01:40:07;;;;;;;4.30;3.63;;;18.00;65.80;;;;;;4999889;28;20038;-68
2021/06/16 01:42:33;;;;;;;5.22;3.20;;;18.00;66.00;;;;;;5000694;28;20041;-68
2021/06/16 01:45:00;;;;;;;4.15;3.47;;;17.90;66.00;;;;;;5000085;28;20034;-69
2021/06/16 01:47:26;;;;;;;5.35;3.40;;;17.90;66.40;;;;;;4999581;28;20049;-68
2021/06/16 01:49:54;;;;;;;5.70;3.30;;;17.90;66.30;;;;;;4999493;28;20579;-69
2021/06/16 01:52:22;;;;;;;5.65;3.17;;;17.90;66.70;;;;;;4997782;28;20531;-69
2021/06/16 01:54:49;;;;;;;6.20;3.35;;;17.90;66.60;;;;;;4999379;28;20066;-68
2021/06/16 01:57:16;;;;;;;3.60;3.30;;;17.90;66.70;;;;;;4998380;28;20041;-68
2021/06/16 01:59:43;;;;;;;4.78;3.30;;;17.80;66.70;;;;;;5000061;28;20494;-68
2021/06/16 02:02:09;;;;;;;6.78;3.47;;;17.80;66.90;;;;;;4998004;28;20529;-68
2021/06/16 02:04:35;;;;;;;5.90;3.70;;;17.80;66.80;;;;;;4999179;28;20687;-68
2021/06/16 02:07:12;;;;;;;9.63;4.70;;;17.80;66.90;;;;;;4999093;28;20032;-69
2021/06/16 02:09:39;;;;;;;8.68;4.70;;;17.80;67.70;;;;;;5001269;28;20033;-69
2021/06/16 02:12:10;;;;;;;8.93;5.22;;;17.80;67.10;;;;;;4993922;28;20034;-69
2021/06/16 02:14:36;;;;;;;9.63;5.15;;;17.80;67.50;;;;;;5004010;28;20122;-68
2021/06/16 02:17:08;;;;;;;8.82;4.43;;;17.70;67.10;;;;;;4997580;28;20115;-69
2021/06/16 02:19:35;;;;;;;8.70;4.53;;;17.70;67.60;;;;;;5004378;28;20408;-69
2021/06/16 02:22:03;;;;;;;8.18;4.53;;;17.70;67.30;;;;;;4997962;28;20042;-68
2021/06/16 02:24:29;;;;;;;7.43;4.38;;;17.70;67.40;;;;;;4999132;28;20038;-69
2021/06/16 02:26:55;;;;;;;5.18;3.88;;;17.70;67.60;;;;;;4994895;28;20603;-69
2021/06/16 02:29:22;;;;;;;4.28;3.78;;;17.60;67.60;;;;;;5000833;28;20197;-68
2021/06/16 02:31:48;;;;;;;5.45;4.13;;;17.60;67.80;;;;;;4996616;28;20378;-69
2021/06/16 02:34:14;;;;;;;5.80;3.58;;;17.60;67.90;;;;;;4999141;28;20041;-68
2021/06/16 02:36:47;;;;;;;5.68;3.80;;;17.60;67.90;;;;;;4998250;28;20061;-69
2021/06/16 02:39:21;;;;;;;6.43;3.80;;;17.50;68.50;;;;;;4998723;28;20039;-69
2021/06/16 02:41:49;;;;;;;4.68;3.22;;;17.50;68.70;;;;;;4996998;28;20044;-68
2021/06/16 02:44:15;;;;;;;5.95;3.25;;;17.50;68.30;;;;;;5000455;28;20035;-68
2021/06/16 02:46:43;;;;;;;4.68;3.72;;;17.50;68.30;;;;;;4999099;28;20114;-69
2021/06/16 02:49:09;;;;;;;4.53;3.40;;;17.40;68.60;;;;;;4998830;28;20081;-68
2021/06/16 02:51:39;;;;;;;4.28;3.88;;;17.40;68.60;;;;;;4996711;28;20034;-68
2021/06/16 02:54:09;;;;;;;4.35;3.40;;;17.40;69.20;;;;;;5005410;28;20034;-68
2021/06/16 02:56:43;;;;;;;6.15;3.80;;;17.40;68.80;;;;;;4995400;28;20030;-69
2021/06/16 02:59:11;;;;;;;7.22;3.92;;;17.40;69.80;;;;;;5002664;28;20117;-68
2021/06/16 03:01:37;;;;;;;3.95;3.45;;;17.40;68.90;;;;;;4998179;28;20030;-68
2021/06/16 03:04:04;;;;;;;3.97;3.63;;;17.30;69.00;;;;;;4998406;28;20053;-68
2021/06/16 03:06:31;;;;;;;6.05;3.55;;;17.30;69.20;;;;;;4995999;28;20045;-68
2021/06/16 03:08:57;;;;;;;7.10;3.60;;;17.30;69.10;;;;;;4998500;28;20034;-70
2021/06/16 03:11:25;;;;;;;4.13;3.70;;;17.30;69.10;;;;;;4993462;28;20030;-68
2021/06/16 03:13:52;;;;;;;6.05;3.58;;;17.30;69.20;;;;;;4999210;28;20108;-69
2021/06/16 03:16:19;;;;;;;5.80;3.70;;;17.30;69.30;;;;;;4998981;28;20045;-68
2021/06/16 03:18:46;;;;;;;3.47;3.17;;;17.30;69.50;;;;;;4995890;28;20417;-68
2021/06/16 03:21:14;;;;;;;4.38;3.75;;;17.30;69.30;;;;;;4999472;28;20038;-68
2021/06/16 03:23:40;;;;;;;5.40;3.60;;;17.30;69.50;;;;;;4998446;28;20031;-69
2021/06/16 03:26:06;;;;;;;4.28;3.88;;;17.30;69.20;;;;;;5000483;28;20573;-68
2021/06/16 03:28:33;;;;;;;3.70;3.33;;;17.30;69.20;;;;;;4997834;28;20049;-68
2021/06/16 03:31:01;;;;;;;5.22;3.88;;;17.30;69.20;;;;;;4998272;28;20030;-68
2021/06/16 03:33:27;;;;;;;6.07;3.80;;;17.40;69.50;;;;;;5001153;28;20034;-68
2021/06/16 03:35:54;;;;;;;5.55;3.35;;;17.40;69.40;;;;;;4999480;28;20075;-68
2021/06/16 03:38:20;;;;;;;3.95;3.58;;;17.40;69.20;;;;;;4993449;28;20031;-69
2021/06/16 03:40:48;;;;;;;4.20;3.80;;;17.40;69.20;;;;;;4997847;28;20857;-69
2021/06/16 03:43:16;;;;;;;4.00;3.40;;;17.40;69.20;;;;;;4999496;28;20033;-69
2021/06/16 03:45:43;;;;;;;4.15;3.10;;;17.40;69.30;;;;;;4994038;28;20061;-68
2021/06/16 03:48:11;;;;;;;4.03;3.67;;;17.30;69.10;;;;;;4995628;28;20033;-68
2021/06/16 03:50:38;;;;;;;6.60;4.20;;;17.30;69.30;;;;;;4995760;28;20061;-68
2021/06/16 03:53:07;;;;;;;4.57;3.63;;;17.30;69.40;;;;;;4995122;28;20048;-68
2021/06/16 03:55:33;;;;;;;4.60;3.97;;;17.30;69.50;;;;;;4995913;28;20402;-69
2021/06/16 03:57:59;;;;;;;5.70;3.78;;;17.30;69.50;;;;;;4997097;28;20104;-69
2021/06/16 04:00:25;;;;;;;4.55;3.85;;;17.30;69.90;;;;;;5002888;28;20034;-69
2021/06/16 04:02:51;;;;;;;4.60;3.90;;;17.30;70.00;;;;;;4994538;28;20073;-68
2021/06/16 04:05:18;;;;;;;6.15;4.40;;;17.20;70.20;;;;;;4992154;28;20042;-68
2021/06/16 04:07:48;;;;;;;4.80;4.05;;;17.20;70.40;;;;;;4992698;28;20044;-69
2021/06/16 04:10:15;;;;;;;7.20;4.88;;;17.20;71.10;;;;;;4996802;28;20528;-68
2021/06/16 04:12:40;;;;;;;5.10;4.50;;;17.20;70.90;;;;;;4989889;28;20050;-68
2021/06/16 04:15:07;;;;;;;4.50;4.10;;;17.20;70.90;;;;;;4993467;28;20042;-68
2021/06/16 04:17:32;;;;;;;6.00;4.32;;;17.20;70.70;;;;;;4994131;28;20038;-68
2021/06/16 04:19:58;;;;;;;6.07;4.45;;;17.30;71.10;;;;;;4992547;28;20061;-68
2021/06/16 04:22:23;;;;;;;4.75;4.22;;;17.30;71.10;;;;;;4995216;28;20114;-68
2021/06/16 04:24:49;;;;;;;4.82;4.25;;;17.30;70.90;;;;;;4998368;28;20061;-68
2021/06/16 04:27:15;;;;;;;4.68;4.22;;;17.40;70.90;;;;;;4994528;28;20038;-68
2021/06/16 04:29:41;;;;;;;5.82;4.10;;;17.40;70.90;;;;;;4996157;28;20030;-68
2021/06/16 04:32:11;;;;;;;6.32;4.30;;;17.50;71.00;;;;;;4992130;28;20460;-69
2021/06/16 04:34:37;;;;;;;5.95;4.25;;;17.50;71.10;;;;;;4994161;28;20042;-68
2021/06/16 04:37:04;;;;;;;4.72;4.32;;;17.50;71.60;;;;;;4996079;28;20512;-68
2021/06/16 04:39:30;;;;;;;5.35;3.95;;;17.60;70.70;;;;;;4995746;28;22772;-69
2021/06/16 04:41:55;;;;;;;7.53;4.30;;;17.60;70.70;;;;;;4996630;28;20117;-68
2021/06/16 04:44:21;;;;;;;5.53;4.30;;;17.70;70.60;;;;;;4998143;28;20413;-68
2021/06/16 04:46:49;;;;;;;6.18;4.95;;;17.80;70.90;;;;;;4998125;28;20038;-69
2021/06/16 04:49:15;;;;;;;5.40;4.38;;;17.90;71.10;;;;;;4998626;28;20027;-69
2021/06/16 04:51:41;;;;;;;5.88;4.35;;;17.90;70.90;;;;;;4996098;28;20044;-69
2021/06/16 04:54:10;;;;;;;7.65;5.38;;;18.00;70.90;;;;;;5002193;28;20117;-69
2021/06/16 04:56:37;;;;;;;7.75;5.30;;;18.00;70.70;;;;;;4998088;28;20037;-69
2021/06/16 04:59:03;;;;;;;5.15;4.65;;;18.10;70.40;;;;;;4999285;28;20537;-68
2021/06/16 05:01:29;;;;;;;4.88;4.38;;;18.20;70.20;;;;;;4996029;28;20037;-69
2021/06/16 05:03:54;;;;;;;4.85;4.35;;;18.20;70.10;;;;;;4998016;28;20453;-69
2021/06/16 05:06:20;;;;;;;5.25;4.55;;;18.30;70.00;;;;;;4997752;28;20041;-69
2021/06/16 05:08:45;;;;;;;7.20;4.40;;;18.40;69.80;;;;;;4994342;28;20037;-68
2021/06/16 05:11:11;;;;;;;8.43;4.78;;;18.40;69.60;;;;;;4995631;28;20037;-69
2021/06/16 05:13:37;;;;;;;12.40;5.05;;;18.50;69.50;;;;;;4996912;28;20532;-68
2021/06/16 05:16:02;;;;;;;8.13;5.35;;;18.50;69.40;;;;;;4997957;28;20042;-68
2021/06/16 05:18:28;;;;;;;6.40;5.80;;;18.60;69.90;;;;;;5003951;28;20030;-68
2021/06/16 05:20:54;;;;;;;7.68;5.70;;;18.70;69.80;;;;;;4997387;28;20033;-68
2021/06/16 05:23:24;;;;;;;7.10;5.93;;;18.70;69.70;;;;;;5003337;28;20121;-69
2021/06/16 05:25:49;;;;;;;7.68;6.00;;;18.80;70.50;;;;;;4996693;28;20116;-69
2021/06/16 05:28:15;;;;;;;7.22;5.57;;;18.80;69.90;;;;;;4997314;28;20506;-69
2021/06/16 05:30:41;;;;;;;6.28;5.68;;;18.80;69.70;;;;;;4996079;28;20066;-69
2021/06/16 05:33:07;;;;;;;6.22;5.63;;;18.80;69.50;;;;;;4997587;28;20068;-68
2021/06/16 05:35:32;;;;;;;8.00;6.50;;;18.90;69.40;;;;;;4997217;28;20034;-68
2021/06/16 05:37:58;;;;;;;10.52;5.70;;;19.00;69.50;;;;;;4995465;28;20037;-69
2021/06/16 05:40:24;;;;;;;9.27;5.60;;;19.00;69.50;;;;;;4995722;28;20124;-69
2021/06/16 05:42:49;;;;;;;7.28;5.93;;;19.10;69.70;;;;;;4999443;28;20037;-69
2021/06/16 05:45:15;;;;;;;7.78;6.40;;;19.10;69.70;;;;;;4995665;28;20449;-69
2021/06/16 05:47:41;;;;;;;8.25;6.35;;;19.20;69.90;;;;;;4998944;28;20042;-69
2021/06/16 05:50:07;;;;;;;7.82;6.15;;;19.20;70.00;;;;;;4998390;28;20065;-68
2021/06/16 05:52:33;;;;;;;8.95;6.60;;;19.20;69.90;;;;;;4994773;28;20034;-69
2021/06/16 05:54:59;;;;;;;7.15;6.03;;;19.30;69.90;;;;;;4996296;28;20108;-69
2021/06/16 05:57:25;;;;;;;6.43;5.82;;;19.30;69.70;;;;;;4995551;28;20496;-69
2021/06/16 05:59:50;;;;;;;7.82;6.28;;;19.40;69.50;;;;;;4997455;28;20030;-68
2021/06/16 06:02:16;;;;;;;6.78;6.05;;;19.50;69.20;;;;;;4999392;28;20117;-69
2021/06/16 06:04:42;;;;;;;7.38;6.18;;;19.50;68.90;;;;;;5005350;28;20053;-69
2021/06/16 06:07:07;;;;;;;6.60;6.00;;;19.60;69.00;;;;;;4998949;28;20622;-69
2021/06/16 06:09:33;;;;;;;6.10;5.45;;;19.60;69.20;;;;;;4999470;28;20113;-69
2021/06/16 06:12:00;;;;;;;6.10;5.60;;;19.70;69.10;;;;;;4996444;28;20034;-69
2021/06/16 06:14:25;;;;;;;6.10;5.43;;;19.70;68.80;;;;;;4999262;28;20034;-69
2021/06/16 06:16:51;;;;;;;8.65;5.60;;;19.80;69.70;;;;;;4999161;28;20616;-68
2021/06/16 06:19:17;;;;;;;6.13;5.50;;;19.90;68.80;;;;;;5008042;28;20354;-68
2021/06/16 06:21:43;;;;;;;6.47;4.75;;;20.00;68.30;;;;;;4997022;28;20528;-69
2021/06/16 06:24:08;;;;;;;5.57;5.07;;;20.10;67.60;;;;;;4997408;28;20060;-69
2021/06/16 06:26:35;;;;;;;7.70;5.78;;;20.20;67.10;;;;;;5001243;28;20042;-69
2021/06/16 06:29:02;;;;;;;5.32;4.82;;;20.30;66.60;;;;;;4998279;28;20031;-68
2021/06/16 06:31:28;;;;;;;5.35;4.85;;;20.30;65.60;;;;;;5005988;28;20521;-69
2021/06/16 06:33:55;;;;;;;4.50;4.10;;;20.30;65.40;;;;;;5007434;28;20030;-68
2021/06/16 06:36:21;;;;;;;5.57;5.00;;;20.40;65.30;;;;;;5000916;28;20084;-69
2021/06/16 06:38:47;;;;;;;6.07;4.90;;;20.50;65.10;;;;;;4995320;28;20065;-69
2021/06/16 06:41:13;;;;;;;7.78;4.68;;;20.60;65.00;;;;;;5001309;28;20106;-68
2021/06/16 06:43:39;;;;;;;5.03;4.53;;;20.60;64.90;;;;;;4998428;28;20039;-69
2021/06/16 06:46:06;;;;;;;4.95;4.53;;;20.70;64.80;;;;;;4999059;28;20037;-69
2021/06/16 06:48:32;;;;;;;6.05;5.35;;;20.90;64.70;;;;;;4999755;28;20038;-69
2021/06/16 06:50:57;;;;;;;6.05;5.43;;;21.00;65.10;;;;;;4998927;28;20049;-69
2021/06/16 06:53:24;;;;;;;5.97;5.38;;;21.10;64.60;;;;;;4996616;28;20069;-68
2021/06/16 06:55:51;;;;;;;5.90;5.40;;;21.20;64.50;;;;;;5010627;28;20416;-69
2021/06/16 06:58:16;;;;;;;7.90;5.03;;;21.30;64.10;;;;;;4999711;28;20558;-69
2021/06/16 07:00:42;;;;;;;5.93;4.80;;;21.30;63.00;;;;;;4998473;28;20192;-69
2021/06/16 07:03:07;;;;;;;5.28;4.78;;;21.40;62.80;;;;;;4990159;28;20042;-69
2021/06/16 07:05:33;;;;;;;6.75;5.97;;;21.50;63.00;;;;;;5013396;28;20042;-69
2021/06/16 07:07:59;;;;;;;9.18;5.28;;;21.60;63.40;;;;;;5006039;28;20038;-69
2021/06/16 07:10:24;;;;;;;7.28;6.03;;;21.60;63.30;;;;;;4994872;28;20060;-69
2021/06/16 07:12:50;;;;;;;7.40;5.80;;;21.70;63.80;;;;;;4997192;28;20100;-69
2021/06/16 07:15:16;;;;;;;8.60;6.18;;;21.80;63.50;;;;;;4998424;28;20093;-69
2021/06/16 07:17:42;;;;;;;6.63;5.65;;;21.80;63.60;;;;;;5003135;28;20057;-69
2021/06/16 07:20:10;;;;;;;6.45;5.70;;;21.90;63.70;;;;;;4999272;28;20042;-69
2021/06/16 07:22:36;;;;;;;6.93;5.63;;;21.90;63.10;;;;;;4998718;28;20049;-69
2021/06/16 07:25:03;;;;;;;8.55;5.30;;;22.00;63.10;;;;;;4996274;28;20417;-69
2021/06/16 07:27:28;;;;;;;8.57;5.32;;;22.10;62.70;;;;;;4999262;28;20030;-69
2021/06/16 07:29:55;;;;;;;7.65;5.88;;;22.20;62.70;;;;;;4999595;28;20042;-69
2021/06/16 07:32:20;;;;;;;7.15;5.57;;;22.30;62.20;;;;;;4998409;28;20084;-69
2021/06/16 07:34:46;;;;;;;7.38;5.35;;;22.40;62.40;;;;;;4999211;28;20038;-69
2021/06/16 07:37:12;;;;;;;6.50;5.53;;;22.60;62.20;;;;;;4995059;28;20042;-69
2021/06/16 07:39:39;;;;;;;5.93;5.43;;;22.70;62.20;;;;;;4998237;28;20042;-69
2021/06/16 07:42:05;;;;;;;6.05;5.45;;;22.80;62.20;;;;;;4996393;28;20731;-69
2021/06/16 07:44:30;;;;;;;5.50;5.00;;;22.90;61.70;;;;;;4996336;28;20137;-69
2021/06/16 07:46:56;;;;;;;5.88;5.30;;;23.00;61.30;;;;;;4998794;28;20121;-69
2021/06/16 07:49:22;;;;;;;9.68;5.43;;;23.20;61.90;;;;;;4999146;28;20488;-69
2021/06/16 07:51:48;;;;;;;10.07;5.70;;;23.30;60.80;;;;;;4998232;28;20057;-69
2021/06/16 07:54:13;;;;;;;7.40;5.50;;;23.40;60.60;;;;;;4998646;28;20065;-69
2021/06/16 07:56:40;;;;;;;10.02;5.65;;;23.60;60.50;;;;;;4996203;28;20072;-69
2021/06/16 07:59:07;;;;;;;6.28;5.40;;;23.70;59.50;;;;;;4997460;28;20100;-69
2021/06/16 08:01:33;;;;;;;9.07;5.60;;;23.80;59.80;;;;;;4999456;28;20732;-69
2021/06/16 08:03:59;;;;;;;6.35;5.57;;;23.90;59.70;;;;;;4997041;28;20033;-69
2021/06/16 08:06:25;;;;;;;7.28;5.22;;;24.00;59.80;;;;;;4998093;28;20034;-68
2021/06/16 08:08:50;;;;;;;7.03;5.10;;;24.10;59.50;;;;;;4994142;28;20049;-69
2021/06/16 08:11:16;;;;;;;7.32;5.07;;;24.20;59.00;;;;;;4993926;28;20068;-69
2021/06/16 08:13:42;;;;;;;7.57;4.90;;;24.40;58.10;;;;;;5003668;28;20117;-68
2021/06/16 08:16:07;;;;;;;5.03;4.53;;;24.50;57.90;;;;;;4998718;28;20046;-69
2021/06/16 08:18:33;;;;;;;4.82;4.05;;;24.60;57.70;;;;;;4998445;28;20408;-69
2021/06/16 08:20:59;;;;;;;5.28;3.92;;;24.70;57.40;;;;;;4998576;28;20038;-69
2021/06/16 08:23:26;;;;;;;4.65;3.78;;;24.80;57.30;;;;;;4994319;28;20045;-68
2021/06/16 08:25:51;;;;;;;4.70;4.07;;;24.90;57.10;;;;;;4998007;28;20417;-68
2021/06/16 08:28:17;;;;;;;6.55;4.70;;;25.00;56.40;;;;;;4997114;28;20050;-69
2021/06/16 08:30:43;;;;;;;6.78;3.72;;;25.10;56.40;;;;;;4998948;28;20048;-69
2021/06/16 08:33:09;;;;;;;3.20;2.90;;;25.20;56.30;;;;;;4997332;28;20496;-69
2021/06/16 08:35:35;;;;;;;6.32;3.03;;;25.30;55.70;;;;;;4998634;28;20405;-69
2021/06/16 08:38:01;;;;;;;3.58;3.20;;;25.50;55.50;;;;;;4995648;28;20498;-69
2021/06/16 08:40:27;;;;;;;4.15;3.45;;;25.60;55.40;;;;;;4997197;28;20042;-69
2021/06/16 08:42:52;;;;;;;7.45;3.50;;;25.70;54.90;;;;;;4996696;28;20037;-69
2021/06/16 08:45:19;;;;;;;2.92;2.63;;;25.90;54.40;;;;;;4998286;28;20038;-69
2021/06/16 08:47:47;;;;;;;3.97;2.30;;;26.00;54.70;;;;;;4998132;28;20100;-69
2021/06/16 08:50:13;;;;;;;3.05;2.42;;;26.10;54.50;;;;;;4997519;28;20588;-69
2021/06/16 08:52:40;;;;;;;5.63;2.50;;;26.20;54.30;;;;;;4996196;28;20739;-69
2021/06/16 08:55:08;;;;;;;4.78;2.85;;;26.30;54.40;;;;;;4998547;28;20029;-69
2021/06/16 08:57:34;;;;;;;6.60;2.85;;;26.50;53.80;;;;;;4996659;28;20042;-69
2021/06/16 09:00:00;;;;;;;2.63;2.40;;;26.60;53.50;;;;;;4998327;28;20037;-70
2021/06/16 09:02:26;;;;;;;4.70;2.70;;;26.80;53.20;;;;;;4997088;28;20039;-69
2021/06/16 09:04:53;;;;;;;2.92;2.30;;;26.90;53.30;;;;;;5000668;28;20286;-69
2021/06/16 09:07:20;;;;;;;2.85;2.55;;;27.00;52.70;;;;;;4997416;28;20049;-69
2021/06/16 09:09:47;;;;;;;4.10;2.38;;;27.20;52.80;;;;;;4996748;28;20120;-69
2021/06/16 09:12:18;;;;;;;3.25;2.60;;;27.30;52.40;;;;;;4993056;28;20172;-69
2021/06/16 09:14:53;;;;;;;5.53;2.25;;;27.40;51.80;;;;;;4996524;28;20735;-69
2021/06/16 09:17:21;;;;;;;3.88;2.00;;;27.50;50.80;;;;;;4998392;28;20069;-70
2021/06/16 09:19:58;;;;;;;6.18;2.45;;;27.60;51.30;;;;;;4997937;28;20516;-70
2021/06/16 09:22:32;;;;;;;6.65;2.38;;;27.70;51.00;;;;;;5003859;28;20046;-70
2021/06/16 09:25:00;;;;;;;1.97;1.80;;;27.80;50.70;;;;;;4996992;28;20048;-69
2021/06/16 09:27:47;;;;;;;4.72;1.67;;;27.90;50.70;;;;;;5002267;28;20516;-69
2021/06/16 09:30:19;;;;;;;4.10;1.83;;;28.00;49.90;;;;;;4995916;28;20089;-69
2021/06/16 09:32:46;;;;;;;4.18;2.20;;;28.20;49.20;;;;;;4996929;28;20038;-70
2021/06/16 09:35:24;;;;;;;1.67;1.58;;;28.30;49.70;;;;;;4997611;28;20065;-69
2021/06/16 09:37:50;;;;;;;3.50;1.80;;;28.30;48.50;;;;;;4999692;28;20036;-69
2021/06/16 09:40:27;;;;;;;2.80;1.45;;;28.40;49.00;;;;;;5000272;28;20399;-69
2021/06/16 09:43:04;;;;;;;2.35;1.50;;;28.60;47.70;;;;;;5000243;28;20034;-70
2021/06/16 09:45:30;;;;;;;6.68;1.70;;;28.60;47.20;;;;;;5000939;28;20053;-69
2021/06/16 09:47:56;;;;;;;3.00;1.30;;;28.70;47.40;;;;;;5004512;28;20045;-70
2021/06/16 09:50:26;;;;;;;1.40;1.30;;;28.90;46.40;;;;;;5000595;28;20187;-70
2021/06/16 09:52:52;;;;;;;2.92;1.55;;;29.00;45.10;;;;;;4999250;28;20111;-70
2021/06/16 09:55:21;;;;;;;2.58;1.30;;;29.10;44.80;;;;;;5000967;28;20488;-71
2021/06/16 09:57:59;;;;;;;1.83;1.55;;;29.30;44.50;;;;;;5000842;28;20034;-69
2021/06/16 10:00:33;;;;;;;3.03;1.40;;;29.30;44.20;;;;;;5000177;28;20076;-70
2021/06/16 10:03:09;;;;;;;1.80;1.50;;;29.50;43.60;;;;;;5006405;28;20038;-69
2021/06/16 10:05:56;;;;;;;2.38;1.40;;;29.60;43.40;;;;;;4999777;28;20128;-70
2021/06/16 10:08:25;;;;;;;2.28;1.15;;;29.70;44.00;;;;;;4995986;28;20034;-70
2021/06/16 10:10:51;;;;;;;1.20;1.10;;;29.80;42.50;;;;;;4997723;28;20034;-67
2021/06/16 10:13:21;;;;;;;1.15;1.05;;;29.90;41.70;;;;;;5000578;28;20129;-67
2021/06/16 10:15:47;;;;;;;1.90;1.30;;;30.00;40.10;;;;;;5001314;28;20069;-67
2021/06/16 10:18:13;;;;;;;1.33;1.20;;;30.10;40.50;;;;;;5001749;28;20034;-67
2021/06/16 10:20:39;;;;;;;8.23;1.30;;;30.10;40.00;;;;;;5000190;28;20030;-67
2021/06/16 10:23:05;;;;;;;1.50;1.23;;;30.20;39.20;;;;;;5004238;28;20117;-67
2021/06/16 10:25:30;;;;;;;2.20;1.27;;;30.30;40.00;;;;;;4998415;28;20045;-67
2021/06/16 10:28:00;;;;;;;1.30;1.20;;;30.30;39.70;;;;;;5000224;28;20599;-67
2021/06/16 10:30:28;;;;;;;2.42;1.40;;;30.40;39.30;;;;;;4999926;28;20453;-67
2021/06/16 10:32:55;;;;;;;2.08;1.35;;;30.50;39.30;;;;;;4999183;28;20034;-67
2021/06/16 10:35:34;;;;;;;2.17;1.50;;;30.50;39.80;;;;;;4999902;28;20281;-67
2021/06/16 10:38:18;;;;;;;3.65;1.45;;;30.60;39.60;;;;;;4997312;28;20092;-68
2021/06/16 10:40:46;;;;;;;3.45;1.30;;;30.70;38.60;;;;;;4997608;28;20501;-69
2021/06/16 10:43:14;;;;;;;2.15;1.40;;;30.70;40.10;;;;;;5003097;28;20042;-67
2021/06/16 10:45:47;;;;;;;3.05;1.58;;;30.80;40.70;;;;;;5000420;28;20533;-67
2021/06/16 10:48:15;;;;;;;2.78;1.65;;;30.80;39.50;;;;;;4996912;28;20050;-67
2021/06/16 10:50:51;;;;;;;2.08;1.40;;;30.90;39.70;;;;;;4999671;28;20037;-67
2021/06/16 10:53:17;;;;;;;1.77;1.40;;;31.00;39.50;;;;;;4995483;28;20042;-67
2021/06/16 10:55:57;;;;;;;2.50;1.40;;;31.10;39.40;;;;;;4999263;28;20035;-68
2021/06/16 10:58:25;;;;;;;1.45;1.33;;;31.10;38.90;;;;;;5000390;28;20041;-67
2021/06/16 11:01:16;;;;;;;1.63;1.52;;;31.20;39.80;;;;;;4999843;28;20058;-67
2021/06/16 11:03:48;;;;;;;3.17;1.58;;;31.30;39.30;;;;;;4997425;28;20405;-67
2021/06/16 11:06:32;;;;;;;1.55;1.45;;;31.40;37.90;;;;;;4999136;28;20042;-67
2021/06/16 11:09:06;;;;;;;1.30;1.20;;;31.50;38.60;;;;;;4998786;28;20034;-67
2021/06/16 11:11:50;;;;;;;1.67;1.50;;;31.50;38.00;;;;;;4995343;28;20042;-68
2021/06/16 11:14:35;;;;;;;2.65;1.42;;;31.60;38.10;;;;;;4999714;28;20398;-68
2021/06/16 11:17:01;;;;;;;2.63;1.58;;;31.60;37.30;;;;;;4998746;28;20041;-68
2021/06/16 11:19:37;;;;;;;2.03;1.50;;;31.60;37.90;;;;;;4999878;28;20039;-67
2021/06/16 11:22:13;;;;;;;1.50;1.40;;;31.70;37.50;;;;;;4997286;28;20405;-68
2021/06/16 11:25:00;;;;;;;3.40;1.50;;;31.70;37.00;;;;;;4998264;28;20037;-68
2021/06/16 11:27:54;;;;;;;2.08;1.60;;;31.80;34.00;;;;;;5000113;28;20034;-68
2021/06/16 11:30:41;;;;;;;1.90;1.15;;;31.70;35.20;;;;;;4999931;28;20032;-67
2021/06/16 11:33:19;;;;;;;4.28;1.58;;;31.70;35.30;;;;;;4995777;28;20034;-67
2021/06/16 11:35:59;;;;;;;1.98;1.35;;;31.70;36.20;;;;;;5000284;28;20027;-68
2021/06/16 11:38:41;;;;;;;4.47;1.30;;;31.60;35.70;;;;;;4996145;28;20256;-68
2021/06/16 11:41:21;;;;;;;1.52;1.40;;;31.60;34.80;;;;;;4998434;28;20745;-68
2021/06/16 11:43:55;;;;;;;1.88;1.40;;;31.60;35.10;;;;;;4998828;28;20440;-67
2021/06/16 11:46:33;;;;;;;4.43;1.52;;;31.60;34.50;;;;;;4998936;28;20509;-68
2021/06/16 11:49:18;;;;;;;1.90;1.70;;;31.60;35.00;;;;;;5000080;28;20034;-68
2021/06/16 11:51:53;;;;;;;1.63;1.20;;;31.50;34.60;;;;;;4998581;28;20236;-67
2021/06/16 11:54:30;;;;;;;1.58;1.48;;;31.50;35.80;;;;;;4997687;28;20125;-68
2021/06/16 11:56:57;;;;;;;2.45;1.33;;;31.40;35.60;;;;;;4998918;28;20052;-68
2021/06/16 11:59:35;;;;;;;1.55;1.30;;;31.50;36.00;;;;;;4998740;28;20042;-68
2021/06/16 12:02:04;;;;;;;2.05;1.42;;;31.50;34.20;;;;;;4999226;28;20038;-67
2021/06/16 12:04:59;;;;;;;1.33;1.20;;;31.50;35.10;;;;;;4994914;28;20040;-67
2021/06/16 12:07:44;;;;;;;2.65;1.40;;;31.60;34.20;;;;;;4996781;28;20048;-68
2021/06/16 12:10:25;;;;;;;1.20;1.10;;;31.50;34.40;;;;;;4998073;28;20453;-68
2021/06/16 12:13:00;;;;;;;1.50;1.40;;;31.60;35.90;;;;;;4996905;28;20516;-68
2021/06/16 12:15:26;;;;;;;1.95;1.20;;;31.60;35.10;;;;;;4996794;28;20498;-68
2021/06/16 12:18:06;;;;;;;1.92;1.40;;;31.60;35.10;;;;;;4998927;28;20034;-67
2021/06/16 12:20:38;;;;;;;1.90;1.45;;;31.60;34.50;;;;;;4996477;28;20042;-67
2021/06/16 12:23:21;;;;;;;1.33;1.10;;;31.70;34.90;;;;;;4997441;28;20042;-67
2021/06/16 12:25:47;;;;;;;1.20;1.10;;;31.70;34.50;;;;;;4994826;28;20033;-67
2021/06/16 12:28:15;;;;;;;2.10;1.40;;;31.80;35.00;;;;;;4997523;28;20042;-68
2021/06/16 12:30:41;;;;;;;1.30;1.20;;;31.80;34.20;;;;;;4994919;28;20048;-67
2021/06/16 12:33:20;;;;;;;1.58;1.27;;;31.80;33.50;;;;;;4996714;28;20070;-67
2021/06/16 12:35:55;;;;;;;1.40;1.30;;;31.70;34.40;;;;;;4995133;28;20053;-68
2021/06/16 12:38:43;;;;;;;2.03;1.30;;;31.70;35.20;;;;;;5004215;28;20071;-67
2021/06/16 12:41:30;;;;;;;2.13;1.40;;;31.80;34.40;;;;;;4995243;28;20037;-67
2021/06/16 12:44:21;;;;;;;1.50;1.40;;;31.80;34.50;;;;;;4997520;28;20038;-68
2021/06/16 12:46:50;;;;;;;2.63;1.02;;;31.90;34.10;;;;;;4997684;28;20169;-68
2021/06/16 12:49:17;;;;;;;1.35;1.13;;;31.90;34.20;;;;;;4998458;28;20045;-67
2021/06/16 12:51:50;;;;;;;1.75;1.17;;;31.90;34.30;;;;;;4994520;28;20034;-67
2021/06/16 12:54:24;;;;;;;3.92;1.13;;;32.00;33.40;;;;;;4997058;28;20397;-67
2021/06/16 12:57:07;;;;;;;1.70;1.40;;;32.10;34.10;;;;;;4996267;28;20026;-67